Bookmark and Share
Track history (hours):
 

Hellas

Last reported at 2014-Apr-12 23:07 UTC. Time now 2014-Apr-16 10:33 UTC.
Position N 49°33' W 001°10'.

Length 50 m; draft 4.5 m.

Type: Tow > 200 m length. MMSI: 375113000.

NotesDate/timePositionNaut miles runAvg speedWind from/ knotsBaromVisibWave heightAir tempDewpointWater temp
2014-Apr-12 23:07N 49°33' W 001°10'0 0.0
2014-Apr-12 13:12N 49°33' W 001°10'0 0.0
2014-Apr-12 12:33N 49°33' W 001°10'0 0.0
2014-Apr-12 10:33N 49°33' W 001°10'0 0.0
2014-Apr-12 09:33N 49°33' W 001°10'0 0.0
2014-Apr-12 08:33N 49°33' W 001°10'0 0.0
2014-Apr-12 07:07N 49°33' W 001°10'0 0.0
2014-Apr-11 23:19N 49°33' W 001°10'87 8.0
2014-Apr-11 12:31N 50°34' E 000°25'1111.0
2014-Apr-11 11:34N 50°39' E 000°40'1110.7
2014-Apr-11 10:34N 50°46' E 000°53'29 9.6
2014-Apr-11 07:34N 51°05' E 001°28'1111.3
2014-Apr-11 06:34N 51°12' E 001°42'1211.7
2014-Apr-11 05:32N 51°22' E 001°53'1211.8
2014-Apr-11 04:33N 51°31' E 002°04'1111.2
2014-Apr-11 03:33N 51°39' E 002°16'1010.6
2014-Apr-11 02:34N 51°47' E 002°28'12 9.9
2014-Apr-11 01:21N 51°56' E 002°41'16 9.2
2014-Apr-10 23:33N 52°03' E 003°05'11 9.6
2014-Apr-10 22:27N 52°04' E 003°22'9 9.7
2014-Apr-10 21:33N 52°04' E 003°36'1010.4
2014-Apr-10 20:33N 52°03' E 003°53'1211.6
2014-Apr-10 19:33N 51°57' E 004°10'1110.5
2014-Apr-10 18:33N 51°54' E 004°26'0 0.4
2014-Apr-10 17:33N 51°54' E 004°26'1 0.6
2014-Apr-10 16:31N 51°54' E 004°26'0 0.0
2014-Apr-10 15:33N 51°54' E 004°26'0 0.0
2014-Apr-10 14:33N 51°54' E 004°26'0 0.0
2014-Apr-10 13:32N 51°54' E 004°26'0 0.0
2014-Apr-10 12:33N 51°54' E 004°26'0 0.0
2014-Apr-10 11:30N 51°54' E 004°26'0 0.0
2014-Apr-10 10:33N 51°54' E 004°26'0 0.0
2014-Apr-10 09:33N 51°54' E 004°26'0 0.0
2014-Apr-10 08:32N 51°54' E 004°26'0 0.0
2014-Apr-10 07:33N 51°54' E 004°26'0 0.0
2014-Apr-10 06:32N 51°54' E 004°26'0 0.0
2014-Apr-10 05:33N 51°54' E 004°26'0 0.0
2014-Apr-10 04:32N 51°54' E 004°26'0 0.0
2014-Apr-10 03:33N 51°54' E 004°26'0 0.0
2014-Apr-10 02:30N 51°54' E 004°26'0 0.0
2014-Apr-10 01:27N 51°54' E 004°26'0 0.0
2014-Apr-10 00:33N 51°54' E 004°26'0 0.0
2014-Apr-09 23:33N 51°54' E 004°26'0 0.0
2014-Apr-09 22:33N 51°54' E 004°26'0 0.0
2014-Apr-09 21:30N 51°54' E 004°26'0 0.0
2014-Apr-09 20:30N 51°54' E 004°26'0 0.0
2014-Apr-09 19:32N 51°54' E 004°26'0 0.0
2014-Apr-09 18:32N 51°54' E 004°26'0 0.0
2014-Apr-09 17:31N 51°54' E 004°26'0 0.0
2014-Apr-09 16:33N 51°54' E 004°26'0 0.0
2014-Apr-09 15:32N 51°54' E 004°26'0 0.0
2014-Apr-09 13:14N 51°54' E 004°26'0 0.0
2014-Apr-09 12:30N 51°54' E 004°26'0 0.0
2014-Apr-09 11:33N 51°54' E 004°26'0 0.0
2014-Apr-09 10:31N 51°54' E 004°26'0 0.0
2014-Apr-09 09:33N 51°54' E 004°26'0 0.0
2014-Apr-09 08:28N 51°54' E 004°26'0 0.0
2014-Apr-09 07:26N 51°54' E 004°26'0 0.0
2014-Apr-09 06:32N 51°54' E 004°26'0 0.0
2014-Apr-09 05:33N 51°54' E 004°26'0 0.0
2014-Apr-09 04:33N 51°54' E 004°26'0 0.0
2014-Apr-09 03:33N 51°54' E 004°26'0 0.0
2014-Apr-09 02:33N 51°54' E 004°26'0 0.0
2014-Apr-09 01:33N 51°54' E 004°26'0 0.0
2014-Apr-09 00:33N 51°54' E 004°26'0 0.0
2014-Apr-08 23:33N 51°54' E 004°26'0 0.0
2014-Apr-08 22:32N 51°54' E 004°26'0 0.0
2014-Apr-08 21:34N 51°54' E 004°26'0 0.0
2014-Apr-08 20:33N 51°54' E 004°26'0 0.0
2014-Apr-08 19:33N 51°54' E 004°26'0 0.0
2014-Apr-08 18:33N 51°54' E 004°26'0 0.0
2014-Apr-08 17:33N 51°54' E 004°26'0 0.0
2014-Apr-08 16:33N 51°54' E 004°26'0 0.0
2014-Apr-08 15:32N 51°54' E 004°26'0 0.0
2014-Apr-08 14:32N 51°54' E 004°26'0 0.0
2014-Apr-08 13:32N 51°54' E 004°26'0 0.0
2014-Apr-08 12:33N 51°54' E 004°26'0 0.0
2014-Apr-08 11:33N 51°54' E 004°26'0 0.0
2014-Apr-08 10:30N 51°54' E 004°26'0 0.0
2014-Apr-08 09:31N 51°54' E 004°26'0 0.0
2014-Apr-08 08:34N 51°54' E 004°26'0 0.0
2014-Apr-08 07:33N 51°54' E 004°26'0 0.0
2014-Apr-08 06:33N 51°54' E 004°26'0 0.0
2014-Apr-08 05:34N 51°54' E 004°26'0 0.0
2014-Apr-08 04:34N 51°54' E 004°26'0 0.0
2014-Apr-08 03:33N 51°54' E 004°26'0 0.0
2014-Apr-08 02:33N 51°54' E 004°26'0 0.0
2014-Apr-08 01:33N 51°54' E 004°26'0 0.0
2014-Apr-08 00:32N 51°54' E 004°26'0 0.0
2014-Apr-07 23:33N 51°54' E 004°26'0 0.0
2014-Apr-07 22:30N 51°54' E 004°26'0 0.0
2014-Apr-07 21:33N 51°54' E 004°26'0 0.0
2014-Apr-07 20:33N 51°54' E 004°26'0 0.0
2014-Apr-07 19:33N 51°54' E 004°26'0 0.0
2014-Apr-07 17:33N 51°54' E 004°26'0 0.0
2014-Apr-07 16:33N 51°54' E 004°26'0 0.0
2014-Apr-07 15:33N 51°54' E 004°26'0 0.0
2014-Apr-07 14:31N 51°54' E 004°26'0 0.0
2014-Apr-07 13:33N 51°54' E 004°26'0 0.0
2014-Apr-07 12:33N 51°54' E 004°26'0 0.0
2014-Apr-07 11:32N 51°54' E 004°26'0 0.0
2014-Apr-07 10:33N 51°54' E 004°26'0 0.0
2014-Apr-07 09:33N 51°54' E 004°26'0 0.0
2014-Apr-07 08:33N 51°54' E 004°26'0 0.0
2014-Apr-07 07:32N 51°54' E 004°26'0 0.0
2014-Apr-07 06:33N 51°54' E 004°26'2 1.8
2014-Apr-07 05:33N 51°54' E 004°23'1110.6
2014-Apr-07 04:33N 51°58' E 004°08'9 9.2
2014-Apr-07 03:33N 52°02' E 003°54'7 7.4
2014-Apr-07 02:34N 52°08' E 003°47'7 7.5
2014-Apr-07 01:34N 52°15' E 003°46'9 8.8
2014-Apr-07 00:34N 52°24' E 003°49'72 8.8
2014-Apr-06 16:25N 53°30' E 004°36'18 9.7
2014-Apr-06 14:33N 53°47' E 004°46'10 9.5
2014-Apr-06 13:33N 53°56' E 004°51'8610.5
2014-Apr-06 05:21N 55°21' E 005°20'16511.2
2014-Apr-05 14:33N 58°04' E 006°03'10 9.9
2014-Apr-05 13:33N 58°14' E 006°05'6 6.3
2014-Apr-05 12:33N 58°19' E 005°59'6 6.0
2014-Apr-05 11:32N 58°23' E 005°50'6 5.6
2014-Apr-05 10:33N 58°27' E 005°43'6 5.9
2014-Apr-05 09:33N 58°31' E 005°35'17 8.6
2014-Apr-05 07:33N 58°44' E 005°11'10 8.1
2014-Apr-05 06:19N 58°50' E 004°57'7 8.0
2014-Apr-05 05:29N 58°55' E 004°49'9 9.6
2014-Apr-05 04:34N 59°04' E 004°45'111 2.3
2014-Apr-03 03:14N 57°15' E 005°30'  

Dump ship's entire track history

sailing weather and tide predictions

Hellas — J8B3126 — position and weather